sensor_id;sensor_type;location;lat;lon;timestamp;P1;durP1;ratioP1;P2;durP2;ratioP2
22097;SDS011;11215;51.938;8.464;2023-08-06T00:00:16;3.47;;;2.37;;
22097;SDS011;11215;51.938;8.464;2023-08-06T00:06:06;5.30;;;2.33;;
22097;SDS011;11215;51.938;8.464;2023-08-06T00:21:51;2.67;;;2.47;;
22097;SDS011;11215;51.938;8.464;2023-08-06T00:27:39;3.83;;;2.70;;
22097;SDS011;11215;51.938;8.464;2023-08-06T00:33:32;2.27;;;2.07;;
22097;SDS011;11215;51.938;8.464;2023-08-06T00:39:30;3.13;;;2.70;;
22097;SDS011;11215;51.938;8.464;2023-08-06T00:45:19;2.37;;;2.17;;
22097;SDS011;11215;51.938;8.464;2023-08-06T00:51:10;3.30;;;2.23;;
22097;SDS011;11215;51.938;8.464;2023-08-06T00:57:02;2.40;;;2.20;;
22097;SDS011;11215;51.938;8.464;2023-08-06T01:02:51;2.77;;;2.53;;
22097;SDS011;11215;51.938;8.464;2023-08-06T01:08:56;2.90;;;2.60;;
22097;SDS011;11215;51.938;8.464;2023-08-06T01:21:17;2.80;;;2.37;;
22097;SDS011;11215;51.938;8.464;2023-08-06T01:27:10;3.80;;;2.27;;
22097;SDS011;11215;51.938;8.464;2023-08-06T01:33:14;2.30;;;2.10;;
22097;SDS011;11215;51.938;8.464;2023-08-06T01:39:10;4.90;;;2.43;;
22097;SDS011;11215;51.938;8.464;2023-08-06T01:45:00;2.37;;;2.17;;
22097;SDS011;11215;51.938;8.464;2023-08-06T01:50:48;2.47;;;2.10;;
22097;SDS011;11215;51.938;8.464;2023-08-06T01:56:50;2.70;;;2.50;;
22097;SDS011;11215;51.938;8.464;2023-08-06T02:02:47;2.83;;;2.50;;
22097;SDS011;11215;51.938;8.464;2023-08-06T02:08:36;3.40;;;2.30;;
22097;SDS011;11215;51.938;8.464;2023-08-06T02:21:07;2.87;;;2.13;;
22097;SDS011;11215;51.938;8.464;2023-08-06T02:26:59;2.13;;;1.87;;
22097;SDS011;11215;51.938;8.464;2023-08-06T02:32:49;2.27;;;2.07;;
22097;SDS011;11215;51.938;8.464;2023-08-06T02:38:38;1.90;;;1.80;;
22097;SDS011;11215;51.938;8.464;2023-08-06T02:44:29;2.67;;;2.30;;
22097;SDS011;11215;51.938;8.464;2023-08-06T02:50:18;2.53;;;2.17;;
22097;SDS011;11215;51.938;8.464;2023-08-06T02:56:08;2.37;;;2.17;;
22097;SDS011;11215;51.938;8.464;2023-08-06T03:01:59;2.20;;;2.00;;
22097;SDS011;11215;51.938;8.464;2023-08-06T03:07:53;3.07;;;2.30;;
22097;SDS011;11215;51.938;8.464;2023-08-06T03:13:41;2.57;;;2.37;;
22097;SDS011;11215;51.938;8.464;2023-08-06T03:25:55;2.33;;;2.13;;
22097;SDS011;11215;51.938;8.464;2023-08-06T03:31:49;2.63;;;2.00;;
22097;SDS011;11215;51.938;8.464;2023-08-06T03:37:40;2.90;;;2.47;;
22097;SDS011;11215;51.938;8.464;2023-08-06T03:43:03;2.87;;;2.17;;
22097;SDS011;11215;51.938;8.464;2023-08-06T03:48:09;3.07;;;2.40;;
22097;SDS011;11215;51.938;8.464;2023-08-06T03:50:38;3.10;;;2.43;;
22097;SDS011;11215;51.938;8.464;2023-08-06T03:53:10;2.67;;;2.20;;
22097;SDS011;11215;51.938;8.464;2023-08-06T03:58:39;2.77;;;2.43;;
22097;SDS011;11215;51.938;8.464;2023-08-06T04:01:05;2.97;;;2.27;;
22097;SDS011;11215;51.938;8.464;2023-08-06T04:03:31;3.33;;;2.43;;
22097;SDS011;11215;51.938;8.464;2023-08-06T04:05:57;2.90;;;2.70;;
22097;SDS011;11215;51.938;8.464;2023-08-06T04:08:23;3.97;;;2.60;;
22097;SDS011;11215;51.938;8.464;2023-08-06T04:10:53;2.50;;;2.23;;
22097;SDS011;11215;51.938;8.464;2023-08-06T04:13:19;5.80;;;2.30;;
22097;SDS011;11215;51.938;8.464;2023-08-06T04:15:45;2.87;;;2.37;;
22097;SDS011;11215;51.938;8.464;2023-08-06T04:18:12;4.20;;;2.70;;
22097;SDS011;11215;51.938;8.464;2023-08-06T04:20:45;2.87;;;2.67;;
22097;SDS011;11215;51.938;8.464;2023-08-06T04:23:12;2.63;;;2.40;;
22097;SDS011;11215;51.938;8.464;2023-08-06T04:25:38;3.10;;;2.80;;
22097;SDS011;11215;51.938;8.464;2023-08-06T04:28:04;3.20;;;2.90;;
22097;SDS011;11215;51.938;8.464;2023-08-06T04:30:30;2.97;;;2.57;;
22097;SDS011;11215;51.938;8.464;2023-08-06T04:32:57;5.00;;;2.50;;
22097;SDS011;11215;51.938;8.464;2023-08-06T04:35:23;2.70;;;2.50;;
22097;SDS011;11215;51.938;8.464;2023-08-06T04:37:49;3.27;;;2.83;;
22097;SDS011;11215;51.938;8.464;2023-08-06T04:40:15;2.97;;;2.53;;
22097;SDS011;11215;51.938;8.464;2023-08-06T04:42:41;2.90;;;2.60;;
22097;SDS011;11215;51.938;8.464;2023-08-06T04:45:07;3.03;;;2.73;;
22097;SDS011;11215;51.938;8.464;2023-08-06T04:47:33;2.43;;;2.30;;
22097;SDS011;11215;51.938;8.464;2023-08-06T04:49:59;3.93;;;2.83;;
22097;SDS011;11215;51.938;8.464;2023-08-06T04:52:26;4.13;;;2.57;;
22097;SDS011;11215;51.938;8.464;2023-08-06T04:54:53;5.03;;;2.80;;
22097;SDS011;11215;51.938;8.464;2023-08-06T04:57:22;3.00;;;2.30;;
22097;SDS011;11215;51.938;8.464;2023-08-06T04:59:48;2.83;;;2.63;;
22097;SDS011;11215;51.938;8.464;2023-08-06T05:02:15;3.40;;;3.10;;
22097;SDS011;11215;51.938;8.464;2023-08-06T05:04:41;3.57;;;2.90;;
22097;SDS011;11215;51.938;8.464;2023-08-06T05:07:07;2.93;;;2.47;;
22097;SDS011;11215;51.938;8.464;2023-08-06T05:09:33;5.77;;;2.80;;
22097;SDS011;11215;51.938;8.464;2023-08-06T05:12:03;3.97;;;2.77;;
22097;SDS011;11215;51.938;8.464;2023-08-06T05:14:30;2.93;;;2.73;;
22097;SDS011;11215;51.938;8.464;2023-08-06T05:16:56;4.57;;;3.00;;
22097;SDS011;11215;51.938;8.464;2023-08-06T05:19:22;3.33;;;3.07;;
22097;SDS011;11215;51.938;8.464;2023-08-06T05:21:48;4.87;;;3.10;;
22097;SDS011;11215;51.938;8.464;2023-08-06T05:24:13;3.10;;;2.80;;
22097;SDS011;11215;51.938;8.464;2023-08-06T05:26:39;2.53;;;2.33;;
22097;SDS011;11215;51.938;8.464;2023-08-06T05:29:05;3.17;;;2.90;;
22097;SDS011;11215;51.938;8.464;2023-08-06T05:31:32;3.10;;;2.90;;
22097;SDS011;11215;51.938;8.464;2023-08-06T05:33:58;2.77;;;2.50;;
22097;SDS011;11215;51.938;8.464;2023-08-06T05:36:24;4.03;;;2.60;;
22097;SDS011;11215;51.938;8.464;2023-08-06T05:38:50;4.37;;;3.10;;
22097;SDS011;11215;51.938;8.464;2023-08-06T05:41:16;3.27;;;2.67;;
22097;SDS011;11215;51.938;8.464;2023-08-06T05:43:42;4.13;;;2.90;;
22097;SDS011;11215;51.938;8.464;2023-08-06T05:46:08;3.37;;;3.03;;
22097;SDS011;11215;51.938;8.464;2023-08-06T05:48:34;3.17;;;2.87;;
22097;SDS011;11215;51.938;8.464;2023-08-06T05:51:00;3.10;;;2.90;;
22097;SDS011;11215;51.938;8.464;2023-08-06T05:53:26;4.03;;;3.10;;
22097;SDS011;11215;51.938;8.464;2023-08-06T05:55:52;3.20;;;3.00;;
22097;SDS011;11215;51.938;8.464;2023-08-06T05:58:18;2.97;;;2.77;;
22097;SDS011;11215;51.938;8.464;2023-08-06T06:00:45;3.73;;;2.70;;
22097;SDS011;11215;51.938;8.464;2023-08-06T06:03:11;3.27;;;2.67;;
22097;SDS011;11215;51.938;8.464;2023-08-06T06:05:37;3.43;;;3.00;;
22097;SDS011;11215;51.938;8.464;2023-08-06T06:08:06;3.73;;;2.90;;
22097;SDS011;11215;51.938;8.464;2023-08-06T06:10:31;3.13;;;2.83;;
22097;SDS011;11215;51.938;8.464;2023-08-06T06:12:57;2.73;;;2.53;;
22097;SDS011;11215;51.938;8.464;2023-08-06T06:15:23;2.90;;;2.70;;
22097;SDS011;11215;51.938;8.464;2023-08-06T06:17:50;3.17;;;2.97;;
22097;SDS011;11215;51.938;8.464;2023-08-06T06:20:16;3.10;;;2.90;;
22097;SDS011;11215;51.938;8.464;2023-08-06T06:22:41;5.37;;;3.23;;
22097;SDS011;11215;51.938;8.464;2023-08-06T06:25:08;3.50;;;3.20;;
22097;SDS011;11215;51.938;8.464;2023-08-06T06:27:35;2.83;;;2.63;;
22097;SDS011;11215;51.938;8.464;2023-08-06T06:30:01;5.33;;;3.03;;
22097;SDS011;11215;51.938;8.464;2023-08-06T06:32:27;3.07;;;2.80;;
22097;SDS011;11215;51.938;8.464;2023-08-06T06:34:53;2.90;;;2.70;;
22097;SDS011;11215;51.938;8.464;2023-08-06T06:37:19;3.40;;;3.10;;
22097;SDS011;11215;51.938;8.464;2023-08-06T06:39:45;3.40;;;3.10;;
22097;SDS011;11215;51.938;8.464;2023-08-06T06:42:11;3.67;;;3.37;;
22097;SDS011;11215;51.938;8.464;2023-08-06T06:44:37;3.80;;;3.40;;
22097;SDS011;11215;51.938;8.464;2023-08-06T06:47:04;3.90;;;3.60;;
22097;SDS011;11215;51.938;8.464;2023-08-06T06:49:30;3.67;;;3.20;;
22097;SDS011;11215;51.938;8.464;2023-08-06T06:51:56;4.63;;;3.07;;
22097;SDS011;11215;51.938;8.464;2023-08-06T06:54:22;3.13;;;2.90;;
22097;SDS011;11215;51.938;8.464;2023-08-06T06:56:48;4.70;;;3.23;;
22097;SDS011;11215;51.938;8.464;2023-08-06T06:59:14;3.10;;;2.77;;
22097;SDS011;11215;51.938;8.464;2023-08-06T07:01:40;4.90;;;3.30;;
22097;SDS011;11215;51.938;8.464;2023-08-06T07:04:06;4.03;;;3.07;;
22097;SDS011;11215;51.938;8.464;2023-08-06T07:06:32;3.50;;;3.20;;
22097;SDS011;11215;51.938;8.464;2023-08-06T07:08:58;4.80;;;3.50;;
22097;SDS011;11215;51.938;8.464;2023-08-06T07:11:24;3.53;;;3.23;;
22097;SDS011;11215;51.938;8.464;2023-08-06T07:13:55;5.07;;;3.53;;
22097;SDS011;11215;51.938;8.464;2023-08-06T07:16:23;2.97;;;2.77;;
22097;SDS011;11215;51.938;8.464;2023-08-06T07:18:50;3.40;;;3.10;;
22097;SDS011;11215;51.938;8.464;2023-08-06T07:21:17;4.03;;;3.63;;
22097;SDS011;11215;51.938;8.464;2023-08-06T07:23:43;4.17;;;3.40;;
22097;SDS011;11215;51.938;8.464;2023-08-06T07:26:10;3.30;;;3.00;;
22097;SDS011;11215;51.938;8.464;2023-08-06T07:28:37;2.83;;;2.53;;
22097;SDS011;11215;51.938;8.464;2023-08-06T07:31:03;3.90;;;3.03;;
22097;SDS011;11215;51.938;8.464;2023-08-06T07:33:29;3.40;;;3.10;;
22097;SDS011;11215;51.938;8.464;2023-08-06T07:35:55;3.30;;;3.00;;
22097;SDS011;11215;51.938;8.464;2023-08-06T07:38:21;3.63;;;3.13;;
22097;SDS011;11215;51.938;8.464;2023-08-06T07:40:47;13.83;;;3.90;;
22097;SDS011;11215;51.938;8.464;2023-08-06T07:43:13;3.30;;;3.00;;
22097;SDS011;11215;51.938;8.464;2023-08-06T07:45:39;4.87;;;3.17;;
22097;SDS011;11215;51.938;8.464;2023-08-06T07:48:05;3.50;;;3.20;;
22097;SDS011;11215;51.938;8.464;2023-08-06T07:50:32;3.77;;;2.93;;
22097;SDS011;11215;51.938;8.464;2023-08-06T07:52:57;3.53;;;3.23;;
22097;SDS011;11215;51.938;8.464;2023-08-06T07:55:23;4.40;;;2.90;;
22097;SDS011;11215;51.938;8.464;2023-08-06T07:57:50;3.50;;;3.07;;
22097;SDS011;11215;51.938;8.464;2023-08-06T08:00:17;3.40;;;2.87;;
22097;SDS011;11215;51.938;8.464;2023-08-06T08:02:43;3.13;;;2.93;;
22097;SDS011;11215;51.938;8.464;2023-08-06T08:05:09;4.27;;;3.00;;
22097;SDS011;11215;51.938;8.464;2023-08-06T08:07:35;3.90;;;2.73;;
22097;SDS011;11215;51.938;8.464;2023-08-06T08:10:02;4.63;;;3.10;;
22097;SDS011;11215;51.938;8.464;2023-08-06T08:12:30;4.23;;;2.93;;
22097;SDS011;11215;51.938;8.464;2023-08-06T08:14:56;3.40;;;3.07;;
22097;SDS011;11215;51.938;8.464;2023-08-06T08:17:22;4.13;;;3.17;;
22097;SDS011;11215;51.938;8.464;2023-08-06T08:19:48;6.13;;;3.70;;
22097;SDS011;11215;51.938;8.464;2023-08-06T08:22:14;4.40;;;3.27;;
22097;SDS011;11215;51.938;8.464;2023-08-06T08:24:40;4.17;;;3.27;;
22097;SDS011;11215;51.938;8.464;2023-08-06T08:27:06;5.07;;;3.30;;
22097;SDS011;11215;51.938;8.464;2023-08-06T08:29:33;3.10;;;2.80;;
22097;SDS011;11215;51.938;8.464;2023-08-06T08:32:00;3.87;;;2.90;;
22097;SDS011;11215;51.938;8.464;2023-08-06T08:34:26;2.57;;;2.17;;
22097;SDS011;11215;51.938;8.464;2023-08-06T08:36:51;2.30;;;2.10;;
22097;SDS011;11215;51.938;8.464;2023-08-06T08:39:17;3.83;;;2.30;;
22097;SDS011;11215;51.938;8.464;2023-08-06T08:41:43;1.80;;;1.70;;
22097;SDS011;11215;51.938;8.464;2023-08-06T08:44:09;2.20;;;2.00;;
22097;SDS011;11215;51.938;8.464;2023-08-06T08:46:36;2.70;;;1.80;;
22097;SDS011;11215;51.938;8.464;2023-08-06T08:49:03;2.20;;;2.00;;
22097;SDS011;11215;51.938;8.464;2023-08-06T08:51:30;1.90;;;1.70;;
22097;SDS011;11215;51.938;8.464;2023-08-06T08:53:57;1.93;;;1.83;;
22097;SDS011;11215;51.938;8.464;2023-08-06T08:56:23;2.13;;;1.70;;
22097;SDS011;11215;51.938;8.464;2023-08-06T08:58:50;2.03;;;1.90;;
22097;SDS011;11215;51.938;8.464;2023-08-06T09:01:18;1.93;;;1.77;;
22097;SDS011;11215;51.938;8.464;2023-08-06T09:03:45;2.37;;;1.80;;
22097;SDS011;11215;51.938;8.464;2023-08-06T09:06:12;3.70;;;2.17;;
22097;SDS011;11215;51.938;8.464;2023-08-06T09:08:49;2.03;;;1.83;;
22097;SDS011;11215;51.938;8.464;2023-08-06T09:11:20;2.60;;;2.10;;
22097;SDS011;11215;51.938;8.464;2023-08-06T09:13:46;3.50;;;2.40;;
22097;SDS011;11215;51.938;8.464;2023-08-06T09:16:13;1.93;;;1.57;;
22097;SDS011;11215;51.938;8.464;2023-08-06T09:18:39;2.30;;;2.10;;
22097;SDS011;11215;51.938;8.464;2023-08-06T09:21:05;1.93;;;1.73;;
22097;SDS011;11215;51.938;8.464;2023-08-06T09:23:39;2.10;;;1.90;;
22097;SDS011;11215;51.938;8.464;2023-08-06T09:26:05;3.03;;;2.07;;
22097;SDS011;11215;51.938;8.464;2023-08-06T09:28:37;2.30;;;1.70;;
22097;SDS011;11215;51.938;8.464;2023-08-06T09:31:04;1.93;;;1.83;;
22097;SDS011;11215;51.938;8.464;2023-08-06T09:33:29;2.30;;;2.10;;
22097;SDS011;11215;51.938;8.464;2023-08-06T09:35:55;2.10;;;1.87;;
22097;SDS011;11215;51.938;8.464;2023-08-06T09:40:50;2.03;;;1.90;;
22097;SDS011;11215;51.938;8.464;2023-08-06T09:43:15;2.40;;;2.03;;
22097;SDS011;11215;51.938;8.464;2023-08-06T09:45:44;1.93;;;1.73;;
22097;SDS011;11215;51.938;8.464;2023-08-06T09:48:10;3.43;;;2.20;;
22097;SDS011;11215;51.938;8.464;2023-08-06T09:50:37;2.07;;;1.90;;
22097;SDS011;11215;51.938;8.464;2023-08-06T09:53:04;1.80;;;1.70;;
22097;SDS011;11215;51.938;8.464;2023-08-06T09:55:31;1.97;;;1.87;;
22097;SDS011;11215;51.938;8.464;2023-08-06T09:57:58;2.00;;;1.80;;
22097;SDS011;11215;51.938;8.464;2023-08-06T10:00:24;2.87;;;2.00;;
22097;SDS011;11215;51.938;8.464;2023-08-06T10:02:52;1.93;;;1.83;;
22097;SDS011;11215;51.938;8.464;2023-08-06T10:05:21;2.37;;;2.17;;
22097;SDS011;11215;51.938;8.464;2023-08-06T10:07:47;2.30;;;2.10;;
22097;SDS011;11215;51.938;8.464;2023-08-06T10:10:14;2.13;;;1.70;;
22097;SDS011;11215;51.938;8.464;2023-08-06T10:12:42;2.47;;;1.73;;
22097;SDS011;11215;51.938;8.464;2023-08-06T10:15:12;2.10;;;1.90;;
22097;SDS011;11215;51.938;8.464;2023-08-06T10:17:41;2.03;;;1.70;;
22097;SDS011;11215;51.938;8.464;2023-08-06T10:20:08;2.07;;;1.70;;
22097;SDS011;11215;51.938;8.464;2023-08-06T10:22:35;1.57;;;1.43;;
22097;SDS011;11215;51.938;8.464;2023-08-06T10:25:01;1.97;;;1.73;;
22097;SDS011;11215;51.938;8.464;2023-08-06T10:27:34;1.50;;;1.40;;
22097;SDS011;11215;51.938;8.464;2023-08-06T10:32:54;2.70;;;1.47;;
22097;SDS011;11215;51.938;8.464;2023-08-06T10:41:00;1.30;;;1.20;;
22097;SDS011;11215;51.938;8.464;2023-08-06T10:43:28;1.60;;;1.50;;
22097;SDS011;11215;51.938;8.464;2023-08-06T10:45:58;1.93;;;1.50;;
22097;SDS011;11215;51.938;8.464;2023-08-06T10:48:28;1.50;;;1.33;;
22097;SDS011;11215;51.938;8.464;2023-08-06T10:50:55;1.50;;;1.27;;
22097;SDS011;11215;51.938;8.464;2023-08-06T10:53:21;1.40;;;1.30;;
22097;SDS011;11215;51.938;8.464;2023-08-06T10:55:47;1.40;;;1.30;;
22097;SDS011;11215;51.938;8.464;2023-08-06T10:58:15;2.37;;;1.40;;
22097;SDS011;11215;51.938;8.464;2023-08-06T11:00:41;2.00;;;1.73;;
22097;SDS011;11215;51.938;8.464;2023-08-06T11:03:07;1.53;;;1.43;;
22097;SDS011;11215;51.938;8.464;2023-08-06T11:05:33;1.57;;;1.40;;
22097;SDS011;11215;51.938;8.464;2023-08-06T11:08:00;1.50;;;1.40;;
22097;SDS011;11215;51.938;8.464;2023-08-06T11:10:26;2.00;;;1.30;;
22097;SDS011;11215;51.938;8.464;2023-08-06T11:12:52;1.50;;;1.40;;
22097;SDS011;11215;51.938;8.464;2023-08-06T11:15:19;1.70;;;1.60;;
22097;SDS011;11215;51.938;8.464;2023-08-06T11:17:46;1.63;;;1.30;;
22097;SDS011;11215;51.938;8.464;2023-08-06T11:20:12;1.60;;;1.47;;
22097;SDS011;11215;51.938;8.464;2023-08-06T11:22:38;1.80;;;1.70;;
22097;SDS011;11215;51.938;8.464;2023-08-06T11:25:05;2.40;;;1.50;;
22097;SDS011;11215;51.938;8.464;2023-08-06T11:27:31;2.23;;;1.53;;
22097;SDS011;11215;51.938;8.464;2023-08-06T11:29:58;1.37;;;1.27;;
22097;SDS011;11215;51.938;8.464;2023-08-06T11:32:25;1.80;;;1.70;;
22097;SDS011;11215;51.938;8.464;2023-08-06T11:34:52;1.93;;;1.83;;
22097;SDS011;11215;51.938;8.464;2023-08-06T11:37:22;2.10;;;1.70;;
22097;SDS011;11215;51.938;8.464;2023-08-06T11:39:51;2.60;;;1.47;;
22097;SDS011;11215;51.938;8.464;2023-08-06T11:42:17;1.70;;;1.60;;
22097;SDS011;11215;51.938;8.464;2023-08-06T11:44:43;2.80;;;1.50;;
22097;SDS011;11215;51.938;8.464;2023-08-06T11:47:13;1.80;;;1.70;;
22097;SDS011;11215;51.938;8.464;2023-08-06T11:49:41;1.70;;;1.60;;
22097;SDS011;11215;51.938;8.464;2023-08-06T11:52:19;1.67;;;1.57;;
22097;SDS011;11215;51.938;8.464;2023-08-06T11:54:59;2.17;;;1.60;;
22097;SDS011;11215;51.938;8.464;2023-08-06T11:57:31;5.03;;;2.03;;
22097;SDS011;11215;51.938;8.464;2023-08-06T12:00:06;3.40;;;1.90;;
22097;SDS011;11215;51.938;8.464;2023-08-06T12:02:34;2.00;;;1.80;;
22097;SDS011;11215;51.938;8.464;2023-08-06T12:05:02;2.60;;;1.77;;
22097;SDS011;11215;51.938;8.464;2023-08-06T12:07:32;2.20;;;1.70;;
22097;SDS011;11215;51.938;8.464;2023-08-06T12:09:58;2.07;;;1.87;;
22097;SDS011;11215;51.938;8.464;2023-08-06T12:12:24;2.20;;;2.00;;
22097;SDS011;11215;51.938;8.464;2023-08-06T12:14:50;2.00;;;1.80;;
22097;SDS011;11215;51.938;8.464;2023-08-06T12:17:16;2.20;;;1.83;;
22097;SDS011;11215;51.938;8.464;2023-08-06T12:19:54;2.23;;;1.70;;
22097;SDS011;11215;51.938;8.464;2023-08-06T12:22:23;2.00;;;1.70;;
22097;SDS011;11215;51.938;8.464;2023-08-06T12:24:48;1.43;;;1.33;;
22097;SDS011;11215;51.938;8.464;2023-08-06T12:27:14;1.73;;;1.60;;
22097;SDS011;11215;51.938;8.464;2023-08-06T12:29:42;1.60;;;1.50;;
22097;SDS011;11215;51.938;8.464;2023-08-06T12:32:08;1.57;;;1.40;;
22097;SDS011;11215;51.938;8.464;2023-08-06T12:34:35;3.00;;;1.50;;
22097;SDS011;11215;51.938;8.464;2023-08-06T12:37:01;2.00;;;1.80;;
22097;SDS011;11215;51.938;8.464;2023-08-06T12:39:27;2.90;;;1.60;;
22097;SDS011;11215;51.938;8.464;2023-08-06T12:41:55;1.80;;;1.70;;
22097;SDS011;11215;51.938;8.464;2023-08-06T12:44:22;1.60;;;1.50;;
22097;SDS011;11215;51.938;8.464;2023-08-06T12:46:48;1.60;;;1.50;;
22097;SDS011;11215;51.938;8.464;2023-08-06T12:49:14;1.60;;;1.50;;
22097;SDS011;11215;51.938;8.464;2023-08-06T12:51:40;2.20;;;1.60;;
22097;SDS011;11215;51.938;8.464;2023-08-06T12:54:05;1.73;;;1.50;;
22097;SDS011;11215;51.938;8.464;2023-08-06T12:56:31;9.53;;;2.90;;
22097;SDS011;11215;51.938;8.464;2023-08-06T12:58:57;6.63;;;2.77;;
22097;SDS011;11215;51.938;8.464;2023-08-06T13:01:22;3.53;;;2.10;;
22097;SDS011;11215;51.938;8.464;2023-08-06T14:18:51;1.77;;;1.60;;
22097;SDS011;11215;51.938;8.464;2023-08-06T14:21:17;3.57;;;1.53;;
22097;SDS011;11215;51.938;8.464;2023-08-06T14:23:43;1.50;;;1.40;;
22097;SDS011;11215;51.938;8.464;2023-08-06T14:26:08;1.77;;;1.50;;
22097;SDS011;11215;51.938;8.464;2023-08-06T14:28:35;1.87;;;1.50;;
22097;SDS011;11215;51.938;8.464;2023-08-06T14:31:01;2.17;;;1.77;;
22097;SDS011;11215;51.938;8.464;2023-08-06T16:56:20;3.70;;;3.40;;
22097;SDS011;11215;51.938;8.464;2023-08-06T16:58:48;3.80;;;2.90;;
22097;SDS011;11215;51.938;8.464;2023-08-06T17:01:14;5.57;;;4.00;;
22097;SDS011;11215;51.938;8.464;2023-08-06T17:03:40;4.53;;;3.37;;
22097;SDS011;11215;51.938;8.464;2023-08-06T17:06:08;10.20;;;6.27;;
22097;SDS011;11215;51.938;8.464;2023-08-06T17:08:39;8.63;;;5.43;;
22097;SDS011;11215;51.938;8.464;2023-08-06T17:11:05;9.93;;;6.43;;
22097;SDS011;11215;51.938;8.464;2023-08-06T17:13:33;7.93;;;5.00;;
22097;SDS011;11215;51.938;8.464;2023-08-06T17:15:59;6.43;;;4.00;;
22097;SDS011;11215;51.938;8.464;2023-08-06T17:22:06;3.03;;;2.47;;
